Lovington, Iowa
Current Conditions -  °F | °C
As of 2:54 PM on Tuesday 21 Oct 2014 (Local Time) from KDSM Reporting Station
Clear Clear  
Wind Chill: 66°   Ceiling: Unl
Heat Index: 66°   Visibility: 10mi
Dew Point: 44°   Wind: 7mph
Humidity: 45%   Direction: 120°ESE
Pressure: 30.11"   Gusts: NA
Location:  41.632°N, 93.7353°W
Report Text: KDSM 211954Z 12006KT 10SM CLR 19/07 A3011 RMK AO2 SLP197 T01890067
Loading
Personal Weather Stations






























Interactive Weather Map
Tropical Storm Tracking
New forecast layout! Learn more

10-Day Weather Forecast

Advertisements
Track Severe Weather on mobile